Time;durP1;ratioP1;P1;durP2;ratioP2;P2;SDS_P1;SDS_P2;PMS_P1;PMS_P2;Temp;Humidity;BMP_temperature;BMP_pressure;BME280_temperature;BME280_humidity;BME280_pressure;Samples;Min_cycle;Max_cycle;Signal;HPM_P1;HPM_P2
2023/03/28 00:00:35;;;;;;;7.18;3.05;;;;;;;;;;5012438;28;20140;-61
2023/03/28 00:03:01;;;;;;;6.65;3.22;;;;;;;;;;5014030;28;20053;-61
2023/03/28 00:05:28;;;;;;;8.63;3.63;;;;;;;;;;5010276;28;20535;-61
2023/03/28 00:07:55;;;;;;;4.57;3.38;;;;;;;;;;5005142;28;20108;-61
2023/03/28 00:10:21;;;;;;;4.18;3.13;;;;;;;;;;5028943;28;20064;-61
2023/03/28 00:12:47;;;;;;;9.73;3.05;;;;;;;;;;5009218;28;20469;-60
2023/03/28 00:15:14;;;;;;;6.00;3.10;;;;;;;;;;5026146;28;20042;-61
2023/03/28 00:17:40;;;;;;;7.05;3.17;;;;;;;;;;5012305;28;20124;-61
2023/03/28 00:20:09;;;;;;;4.60;2.58;;;;;;;;;;5013071;28;20060;-61
2023/03/28 00:22:36;;;;;;;4.90;2.67;;;;;;;;;;5012355;28;20180;-61
2023/03/28 00:25:04;;;;;;;10.13;3.22;;;;;;;;;;5010779;28;20501;-61
2023/03/28 00:27:32;;;;;;;8.70;2.80;;;;;;;;;;5011347;28;20052;-61
2023/03/28 00:29:58;;;;;;;6.05;3.40;;;;;;;;;;5011445;28;20850;-61
2023/03/28 00:32:24;;;;;;;7.35;2.70;;;;;;;;;;5012701;28;21304;-61
2023/03/28 00:34:50;;;;;;;4.78;2.80;;;;;;;;;;5010042;28;20049;-61
2023/03/28 00:37:16;;;;;;;4.80;3.00;;;;;;;;;;5012103;28;20533;-61
2023/03/28 00:39:48;;;;;;;4.68;2.33;;;;;;;;;;5010749;28;20201;-61
2023/03/28 00:42:19;;;;;;;8.25;3.05;;;;;;;;;;5011724;28;20037;-61
2023/03/28 00:44:46;;;;;;;7.80;3.05;;;;;;;;;;5025301;28;20053;-61
2023/03/28 00:47:35;;;;;;;6.57;3.38;;;;;;;;;;5008432;28;20355;-61
2023/03/28 00:50:09;;;;;;;7.07;2.78;;;;;;;;;;5012926;28;20105;-61
2023/03/28 00:52:39;;;;;;;4.65;2.50;;;;;;;;;;5008683;28;20120;-61
2023/03/28 00:55:07;;;;;;;4.90;2.70;;;;;;;;;;5010434;28;20140;-57
2023/03/28 00:57:37;;;;;;;7.70;2.53;;;;;;;;;;5010398;28;20065;-57
2023/03/28 01:00:05;;;;;;;12.05;3.35;;;;;;;;;;5012535;28;20554;-57
2023/03/28 01:02:31;;;;;;;4.93;3.03;;;;;;;;;;5008795;28;20038;-57
2023/03/28 01:05:00;;;;;;;3.90;2.78;;;;;;;;;;5010746;28;20096;-57
2023/03/28 01:07:30;;;;;;;3.92;2.60;;;;;;;;;;5011887;28;20515;-57
2023/03/28 01:09:56;;;;;;;7.10;3.53;;;;;;;;;;5010912;28;20113;-57
2023/03/28 01:12:22;;;;;;;7.53;3.28;;;;;;;;;;5010662;28;20136;-57
2023/03/28 01:14:49;;;;;;;8.15;3.17;;;;;;;;;;5009716;28;20558;-58
2023/03/28 01:17:15;;;;;;;7.10;3.53;;;;;;;;;;5009130;28;20101;-56
2023/03/28 01:20:00;;;;;;;6.18;2.47;;;;;;;;;;5012527;28;20045;-57
2023/03/28 01:22:44;;;;;;;7.15;2.67;;;;;;;;;;5010128;28;20072;-56
2023/03/28 01:25:29;;;;;;;5.88;2.47;;;;;;;;;;5012361;28;20139;-56
2023/03/28 01:28:01;;;;;;;5.93;2.40;;;;;;;;;;5017404;28;20052;-56
2023/03/28 01:30:30;;;;;;;3.60;1.60;;;;;;;;;;5010397;28;20528;-56
2023/03/28 01:33:02;;;;;;;4.50;2.10;;;;;;;;;;5010751;28;20053;-56
2023/03/28 01:35:47;;;;;;;4.57;3.33;;;;;;;;;;5012155;28;20042;-57
2023/03/28 01:38:25;;;;;;;5.15;2.58;;;;;;;;;;5008946;28;20066;-57
2023/03/28 01:40:51;;;;;;;6.30;2.58;;;;;;;;;;5010246;28;20061;-57
2023/03/28 01:43:25;;;;;;;10.25;2.35;;;;;;;;;;5009895;28;20053;-58
2023/03/28 01:45:54;;;;;;;6.10;2.40;;;;;;;;;;5010641;28;20065;-57
2023/03/28 01:48:33;;;;;;;7.53;3.35;;;;;;;;;;5008360;28;20049;-58
2023/03/28 01:50:59;;;;;;;5.60;2.97;;;;;;;;;;5012231;28;20536;-57
2023/03/28 01:53:32;;;;;;;4.53;2.72;;;;;;;;;;5009062;28;21196;-57
2023/03/28 01:56:01;;;;;;;4.47;2.58;;;;;;;;;;5009951;28;20085;-57
2023/03/28 01:58:31;;;;;;;6.53;3.08;;;;;;;;;;5010197;28;20325;-58
2023/03/28 02:01:06;;;;;;;5.20;2.38;;;;;;;;;;5014648;28;20133;-57
2023/03/28 02:03:34;;;;;;;5.50;2.20;;;;;;;;;;5012567;28;20038;-57
2023/03/28 02:06:04;;;;;;;4.47;2.60;;;;;;;;;;5014882;28;20049;-57
2023/03/28 02:08:32;;;;;;;4.05;2.47;;;;;;;;;;5014949;28;20089;-57
2023/03/28 02:10:58;;;;;;;5.35;2.63;;;;;;;;;;5015457;28;20114;-57
2023/03/28 02:13:26;;;;;;;8.20;2.83;;;;;;;;;;5012526;28;20042;-57
2023/03/28 02:15:55;;;;;;;5.07;2.65;;;;;;;;;;5014011;28;20042;-57
2023/03/28 02:18:24;;;;;;;5.20;2.95;;;;;;;;;;5014417;28;20269;-56
2023/03/28 02:20:53;;;;;;;6.40;3.58;;;;;;;;;;5014561;28;20064;-57
2023/03/28 02:23:26;;;;;;;4.70;3.50;;;;;;;;;;5015033;28;20631;-56
2023/03/28 02:25:52;;;;;;;6.90;3.53;;;;;;;;;;5013720;28;20038;-57
2023/03/28 02:28:18;;;;;;;5.35;3.17;;;;;;;;;;5011055;28;20076;-57
2023/03/28 02:30:45;;;;;;;4.35;3.15;;;;;;;;;;5014196;28;20042;-57
2023/03/28 02:33:50;;;;;;;4.38;2.53;;;;;;;;;;5012824;28;20056;-57
2023/03/28 02:36:31;;;;;;;5.38;2.65;;;;;;;;;;4990060;28;20061;-56
2023/03/28 02:39:26;;;;;;;6.55;3.15;;;;;;;;;;4991928;28;20062;-56
2023/03/28 02:41:58;;;;;;;4.63;2.70;;;;;;;;;;4994143;28;20054;-56
2023/03/28 02:44:34;;;;;;;7.13;3.25;;;;;;;;;;5012545;28;20136;-57
2023/03/28 02:47:12;;;;;;;8.23;3.13;;;;;;;;;;5011822;28;20089;-56
2023/03/28 02:49:57;;;;;;;8.23;3.38;;;;;;;;;;5008698;28;20539;-56
2023/03/28 02:52:50;;;;;;;7.15;3.00;;;;;;;;;;5014439;28;20206;-57
2023/03/28 02:55:37;;;;;;;8.07;3.78;;;;;;;;;;5006240;28;20045;-57
2023/03/28 02:58:13;;;;;;;9.18;3.28;;;;;;;;;;5012267;28;20565;-56
2023/03/28 03:00:39;;;;;;;4.50;2.95;;;;;;;;;;5012910;28;20085;-56
2023/03/28 03:03:09;;;;;;;6.93;3.25;;;;;;;;;;5012680;28;20034;-56
2023/03/28 03:05:35;;;;;;;5.82;2.92;;;;;;;;;;5012061;28;20049;-57
2023/03/28 03:08:01;;;;;;;7.20;3.05;;;;;;;;;;5011893;28;20049;-56
2023/03/28 03:10:27;;;;;;;6.72;3.42;;;;;;;;;;5045292;28;20045;-56
2023/03/28 03:12:54;;;;;;;6.30;3.08;;;;;;;;;;5012273;28;20073;-57
2023/03/28 03:15:20;;;;;;;7.13;3.05;;;;;;;;;;5012060;28;20049;-57
2023/03/28 03:17:46;;;;;;;5.28;3.10;;;;;;;;;;5011360;28;20543;-57
2023/03/28 03:20:12;;;;;;;5.70;3.85;;;;;;;;;;5013507;28;20573;-57
2023/03/28 03:22:39;;;;;;;10.77;2.72;;;;;;;;;;5014026;28;20054;-56
2023/03/28 03:25:06;;;;;;;5.10;3.05;;;;;;;;;;5012404;28;20053;-57
2023/03/28 03:27:33;;;;;;;6.47;3.50;;;;;;;;;;5013819;28;21321;-57
2023/03/28 03:30:00;;;;;;;9.93;3.70;;;;;;;;;;5010589;28;20082;-56
2023/03/28 03:32:26;;;;;;;8.75;3.42;;;;;;;;;;5012785;28;20038;-57
2023/03/28 03:34:52;;;;;;;9.50;4.15;;;;;;;;;;5040072;28;20061;-57
2023/03/28 03:37:18;;;;;;;8.82;3.45;;;;;;;;;;5012235;28;20049;-57
2023/03/28 03:39:45;;;;;;;8.43;3.65;;;;;;;;;;5027211;28;20109;-57
2023/03/28 03:42:11;;;;;;;11.52;4.50;;;;;;;;;;5012516;28;20599;-57
2023/03/28 03:44:37;;;;;;;5.28;3.53;;;;;;;;;;5011033;28;20121;-57
2023/03/28 03:47:04;;;;;;;8.35;3.58;;;;;;;;;;5030250;28;20096;-56
2023/03/28 03:49:30;;;;;;;10.40;3.80;;;;;;;;;;5012667;28;20223;-57
2023/03/28 03:51:56;;;;;;;7.07;3.38;;;;;;;;;;5013692;28;20045;-57
2023/03/28 03:54:22;;;;;;;7.65;3.72;;;;;;;;;;5004535;28;20034;-57
2023/03/28 03:56:48;;;;;;;6.20;3.17;;;;;;;;;;5013701;28;20042;-56
2023/03/28 03:59:15;;;;;;;6.85;4.00;;;;;;;;;;5011483;28;20056;-58
2023/03/28 04:01:42;;;;;;;5.05;3.30;;;;;;;;;;5015408;28;20066;-57
2023/03/28 04:04:09;;;;;;;6.25;3.58;;;;;;;;;;5011356;28;20045;-57
2023/03/28 04:06:37;;;;;;;8.50;4.82;;;;;;;;;;5012789;28;20045;-57
2023/03/28 04:09:03;;;;;;;9.77;3.60;;;;;;;;;;5010076;28;20054;-57
2023/03/28 04:11:29;;;;;;;10.15;4.25;;;;;;;;;;5012025;28;20121;-57
2023/03/28 04:13:56;;;;;;;9.88;4.15;;;;;;;;;;5013812;28;20050;-57
2023/03/28 04:16:22;;;;;;;7.22;4.00;;;;;;;;;;5009629;28;20058;-57
2023/03/28 04:18:51;;;;;;;7.22;3.72;;;;;;;;;;5012639;28;20635;-56
2023/03/28 04:21:24;;;;;;;13.90;4.28;;;;;;;;;;5011272;28;21201;-56
2023/03/28 04:23:50;;;;;;;7.07;3.70;;;;;;;;;;5012975;28;20685;-56
2023/03/28 04:26:24;;;;;;;8.23;3.50;;;;;;;;;;5010923;28;20034;-57
2023/03/28 04:28:51;;;;;;;11.48;4.32;;;;;;;;;;5012204;28;21313;-57
2023/03/28 04:31:17;;;;;;;7.20;4.15;;;;;;;;;;5011293;28;20081;-57
2023/03/28 04:33:44;;;;;;;12.68;5.20;;;;;;;;;;5014285;28;20037;-57
2023/03/28 04:36:11;;;;;;;8.15;4.43;;;;;;;;;;5008299;28;20508;-57
2023/03/28 04:38:40;;;;;;;7.10;3.72;;;;;;;;;;5010624;28;20093;-57
2023/03/28 04:41:07;;;;;;;6.22;3.97;;;;;;;;;;5017498;28;20113;-56
2023/03/28 04:43:33;;;;;;;7.53;3.90;;;;;;;;;;5010671;28;20046;-57
2023/03/28 04:45:59;;;;;;;14.65;5.03;;;;;;;;;;5007026;28;20076;-57
2023/03/28 04:48:26;;;;;;;6.20;4.25;;;;;;;;;;5010881;28;20045;-57
2023/03/28 04:50:52;;;;;;;7.55;3.78;;;;;;;;;;5006276;28;20046;-56
2023/03/28 04:53:18;;;;;;;10.45;3.58;;;;;;;;;;5011736;28;20073;-56
2023/03/28 04:55:48;;;;;;;9.23;3.83;;;;;;;;;;5011526;28;20060;-57
2023/03/28 04:58:15;;;;;;;11.25;4.68;;;;;;;;;;5013288;28;20050;-56
2023/03/28 05:00:41;;;;;;;8.25;3.67;;;;;;;;;;5010356;28;20623;-57
2023/03/28 05:03:12;;;;;;;13.02;4.93;;;;;;;;;;5012079;28;20078;-57
2023/03/28 05:05:38;;;;;;;8.05;4.13;;;;;;;;;;5010611;28;20104;-56
2023/03/28 05:08:04;;;;;;;6.85;4.03;;;;;;;;;;5009201;28;20060;-56
2023/03/28 05:10:30;;;;;;;6.80;4.43;;;;;;;;;;5012511;28;20251;-56
2023/03/28 05:12:57;;;;;;;6.43;3.95;;;;;;;;;;5010707;28;20531;-56
2023/03/28 05:15:23;;;;;;;7.40;4.43;;;;;;;;;;5010851;28;20046;-56
2023/03/28 05:17:49;;;;;;;9.27;4.05;;;;;;;;;;5008675;28;20525;-56
2023/03/28 05:20:17;;;;;;;6.80;3.85;;;;;;;;;;5011893;28;20073;-57
2023/03/28 05:22:43;;;;;;;9.70;3.92;;;;;;;;;;5024583;28;20128;-57
2023/03/28 05:25:10;;;;;;;7.20;4.60;;;;;;;;;;5008227;28;20153;-57
2023/03/28 05:27:37;;;;;;;7.93;3.92;;;;;;;;;;5006365;28;20414;-57
2023/03/28 05:30:04;;;;;;;9.43;4.60;;;;;;;;;;5008860;28;20042;-57
2023/03/28 05:32:30;;;;;;;8.20;4.20;;;;;;;;;;5010234;28;20078;-57
2023/03/28 05:34:56;;;;;;;6.85;3.95;;;;;;;;;;5005480;28;20181;-58
2023/03/28 05:37:22;;;;;;;11.13;4.45;;;;;;;;;;5005740;28;20046;-57
2023/03/28 05:39:48;;;;;;;10.70;4.05;;;;;;;;;;5009069;28;20045;-57
2023/03/28 05:42:15;;;;;;;10.52;4.72;;;;;;;;;;5004060;28;20041;-57
2023/03/28 05:44:41;;;;;;;8.13;4.63;;;;;;;;;;5011818;28;20086;-57
2023/03/28 05:47:07;;;;;;;7.10;4.43;;;;;;;;;;5009651;28;20046;-58
2023/03/28 05:49:33;;;;;;;7.15;4.40;;;;;;;;;;5011024;28;20071;-57
2023/03/28 05:51:59;;;;;;;12.40;5.28;;;;;;;;;;5011482;28;20038;-57
2023/03/28 05:54:25;;;;;;;6.22;3.83;;;;;;;;;;5012278;28;20956;-57
2023/03/28 05:56:51;;;;;;;7.90;3.85;;;;;;;;;;5012603;28;20529;-57
2023/03/28 05:59:18;;;;;;;11.82;4.65;;;;;;;;;;5008344;28;20052;-57
2023/03/28 06:01:45;;;;;;;9.07;5.07;;;;;;;;;;5012368;28;20034;-57
2023/03/28 06:04:11;;;;;;;7.18;4.45;;;;;;;;;;5007919;28;20125;-57
2023/03/28 06:06:37;;;;;;;7.70;4.60;;;;;;;;;;5011272;28;20303;-57
2023/03/28 06:09:03;;;;;;;13.40;4.60;;;;;;;;;;5012529;28;20042;-57
2023/03/28 06:11:30;;;;;;;7.03;4.15;;;;;;;;;;5012445;28;20046;-57
2023/03/28 06:13:56;;;;;;;10.35;4.90;;;;;;;;;;5008435;28;20591;-57
2023/03/28 06:16:23;;;;;;;6.03;4.47;;;;;;;;;;5006801;28;20066;-58
2023/03/28 06:18:49;;;;;;;9.27;5.03;;;;;;;;;;5026281;28;21098;-57
2023/03/28 06:21:15;;;;;;;8.55;4.57;;;;;;;;;;5008217;28;20090;-57
2023/03/28 06:23:41;;;;;;;7.22;5.38;;;;;;;;;;5010813;28;20046;-57
2023/03/28 06:26:07;;;;;;;8.73;4.90;;;;;;;;;;5010183;28;20061;-57
2023/03/28 06:28:33;;;;;;;9.40;4.93;;;;;;;;;;5012636;28;20070;-57
2023/03/28 06:31:00;;;;;;;15.77;5.68;;;;;;;;;;5009779;28;20042;-57
2023/03/28 06:33:26;;;;;;;10.73;5.45;;;;;;;;;;5011511;28;21442;-57
2023/03/28 06:35:52;;;;;;;12.00;5.65;;;;;;;;;;5010496;28;20038;-57
2023/03/28 06:38:18;;;;;;;14.45;6.00;;;;;;;;;;5010376;28;20127;-57
2023/03/28 06:40:44;;;;;;;9.25;5.40;;;;;;;;;;5026069;28;20124;-57
2023/03/28 06:43:10;;;;;;;7.15;4.65;;;;;;;;;;5010819;28;20419;-58
2023/03/28 06:45:36;;;;;;;11.23;5.57;;;;;;;;;;5003682;28;20042;-57
2023/03/28 06:48:02;;;;;;;9.30;5.03;;;;;;;;;;5011444;28;20046;-57
2023/03/28 06:50:28;;;;;;;9.88;4.88;;;;;;;;;;5008525;28;20104;-57
2023/03/28 06:52:54;;;;;;;8.43;4.70;;;;;;;;;;5011059;28;20469;-57
2023/03/28 06:55:21;;;;;;;10.63;5.35;;;;;;;;;;5005178;28;20064;-57
2023/03/28 06:57:47;;;;;;;7.10;4.25;;;;;;;;;;5009422;28;20104;-57
2023/03/28 07:00:14;;;;;;;10.27;5.45;;;;;;;;;;5012371;28;20129;-57
2023/03/28 07:02:40;;;;;;;12.25;4.80;;;;;;;;;;5010944;28;20042;-57
2023/03/28 07:05:06;;;;;;;10.27;4.95;;;;;;;;;;5011268;28;20112;-57
2023/03/28 07:07:32;;;;;;;10.40;4.93;;;;;;;;;;5013332;28;20116;-57
2023/03/28 07:09:59;;;;;;;8.85;4.57;;;;;;;;;;5007093;28;20396;-57
2023/03/28 07:12:25;;;;;;;7.95;4.85;;;;;;;;;;5013137;28;20128;-57
2023/03/28 07:14:51;;;;;;;12.65;4.85;;;;;;;;;;5013770;28;20166;-57
2023/03/28 07:17:17;;;;;;;9.07;4.57;;;;;;;;;;5012341;28;20057;-58
2023/03/28 07:19:44;;;;;;;6.60;3.70;;;;;;;;;;5011915;28;20042;-58
2023/03/28 07:22:11;;;;;;;6.38;4.07;;;;;;;;;;5009793;28;20521;-57
2023/03/28 07:24:37;;;;;;;7.68;4.03;;;;;;;;;;5011778;28;20867;-58
2023/03/28 07:27:04;;;;;;;8.32;3.97;;;;;;;;;;5004563;28;20042;-58
2023/03/28 07:29:30;;;;;;;7.90;3.33;;;;;;;;;;5009857;28;20034;-58
2023/03/28 07:31:56;;;;;;;4.93;3.22;;;;;;;;;;5010275;28;20132;-58
2023/03/28 07:34:22;;;;;;;6.80;3.25;;;;;;;;;;5010833;28;20659;-58
2023/03/28 07:36:48;;;;;;;9.85;3.33;;;;;;;;;;5011213;28;20181;-58
2023/03/28 07:39:14;;;;;;;3.70;2.38;;;;;;;;;;5007274;28;20140;-58
2023/03/28 07:41:41;;;;;;;6.30;3.50;;;;;;;;;;5010745;28;20042;-57
2023/03/28 07:44:07;;;;;;;7.20;3.47;;;;;;;;;;5009737;28;22121;-57
2023/03/28 07:46:36;;;;;;;9.05;3.65;;;;;;;;;;5010400;28;20048;-58
2023/03/28 07:49:02;;;;;;;5.97;2.88;;;;;;;;;;5010988;28;20045;-57
2023/03/28 07:51:29;;;;;;;6.82;3.35;;;;;;;;;;5002668;28;20125;-58
2023/03/28 07:53:55;;;;;;;8.52;2.75;;;;;;;;;;5011182;28;20178;-58
2023/03/28 07:56:21;;;;;;;7.85;3.03;;;;;;;;;;5006548;28;20690;-58
2023/03/28 07:58:47;;;;;;;6.72;3.33;;;;;;;;;;5018048;28;20045;-58
2023/03/28 08:01:14;;;;;;;7.10;3.13;;;;;;;;;;5009278;28;20048;-57
2023/03/28 08:03:40;;;;;;;5.45;2.78;;;;;;;;;;5011021;28;20074;-58
2023/03/28 08:06:08;;;;;;;4.47;2.63;;;;;;;;;;5008856;28;20041;-58
2023/03/28 08:08:35;;;;;;;26.90;5.43;;;;;;;;;;5009854;28;20046;-58
2023/03/28 08:11:01;;;;;;;10.63;4.63;;;;;;;;;;5008558;28;20049;-58
2023/03/28 08:13:27;;;;;;;5.40;2.75;;;;;;;;;;5008152;28;20161;-58
2023/03/28 08:15:56;;;;;;;6.20;2.72;;;;;;;;;;5008304;28;20136;-58
2023/03/28 08:18:25;;;;;;;3.80;2.20;;;;;;;;;;5007737;28;20058;-58
2023/03/28 08:20:57;;;;;;;4.40;2.38;;;;;;;;;;5007559;28;20042;-58
2023/03/28 08:23:23;;;;;;;3.97;2.28;;;;;;;;;;5009883;28;20053;-58
2023/03/28 08:25:50;;;;;;;7.53;3.05;;;;;;;;;;5025272;28;20057;-58
2023/03/28 08:28:16;;;;;;;4.55;2.63;;;;;;;;;;5013971;28;20173;-58
2023/03/28 08:30:42;;;;;;;4.65;2.42;;;;;;;;;;5042932;28;20046;-58
2023/03/28 08:33:09;;;;;;;5.00;2.33;;;;;;;;;;5012122;28;20058;-58
2023/03/28 08:35:35;;;;;;;7.10;2.28;;;;;;;;;;5013383;28;20041;-58
2023/03/28 08:38:01;;;;;;;6.68;4.75;;;;;;;;;;5011446;28;20135;-58
2023/03/28 08:40:28;;;;;;;8.18;2.45;;;;;;;;;;5015186;28;20076;-58
2023/03/28 08:43:16;;;;;;;4.43;2.30;;;;;;;;;;5015372;28;20053;-58
2023/03/28 08:45:46;;;;;;;4.15;2.28;;;;;;;;;;5013206;28;20523;-58
2023/03/28 08:48:15;;;;;;;2.70;1.77;;;;;;;;;;5020579;28;20049;-58
2023/03/28 08:51:08;;;;;;;4.15;2.78;;;;;;;;;;5015434;28;20049;-58
2023/03/28 08:53:37;;;;;;;5.00;2.58;;;;;;;;;;5013277;28;20057;-58
2023/03/28 08:56:05;;;;;;;2.85;1.75;;;;;;;;;;5015042;28;20046;-57
2023/03/28 08:58:41;;;;;;;4.00;2.33;;;;;;;;;;5012480;28;20045;-57
2023/03/28 09:01:08;;;;;;;6.45;2.40;;;;;;;;;;5011187;28;20042;-57
2023/03/28 09:03:35;;;;;;;2.95;1.50;;;;;;;;;;5009010;28;20050;-56
2023/03/28 09:06:16;;;;;;;4.75;2.00;;;;;;;;;;5006284;28;20042;-59
2023/03/28 09:08:43;;;;;;;4.95;1.60;;;;;;;;;;5011970;28;20039;-58
2023/03/28 09:11:16;;;;;;;3.30;2.03;;;;;;;;;;5013513;28;20116;-58
2023/03/28 09:13:48;;;;;;;4.43;1.50;;;;;;;;;;5012026;28;20045;-58
2023/03/28 09:16:15;;;;;;;3.05;1.73;;;;;;;;;;5013374;28;20038;-58
2023/03/28 09:18:44;;;;;;;3.67;1.65;;;;;;;;;;5010962;28;20045;-58
2023/03/28 09:21:37;;;;;;;3.92;1.88;;;;;;;;;;5012847;28;20536;-58
2023/03/28 09:24:03;;;;;;;;;;;;;;;;;;5017199;28;20108;-57
2023/03/28 09:26:37;;;;;;;4.50;1.65;;;;;;;;;;5013305;28;20410;-57
2023/03/28 09:29:03;;;;;;;3.45;1.60;;;;;;;;;;5010894;28;20038;-57
2023/03/28 09:31:34;;;;;;;3.00;1.80;;;;;;;;;;5011758;28;20046;-57
2023/03/28 09:34:01;;;;;;;3.35;1.77;;;;;;;;;;5009658;28;20042;-57
2023/03/28 09:36:29;;;;;;;3.75;1.67;;;;;;;;;;5010614;28;20045;-57
2023/03/28 09:38:57;;;;;;;6.18;1.45;;;;;;;;;;5006868;28;20457;-57
2023/03/28 09:41:27;;;;;;;3.80;1.70;;;;;;;;;;5007111;28;21019;-57
2023/03/28 09:43:58;;;;;;;7.20;2.22;;;;;;;;;;5012389;28;20046;-57
2023/03/28 09:46:27;;;;;;;4.25;2.15;;;;;;;;;;5013441;28;20046;-58
2023/03/28 09:48:54;;;;;;;4.53;1.65;;;;;;;;;;5011938;28;20070;-57
2023/03/28 09:51:20;;;;;;;3.50;1.80;;;;;;;;;;5012707;28;20132;-57
2023/03/28 09:53:47;;;;;;;5.60;1.73;;;;;;;;;;5013158;28;20557;-57
2023/03/28 09:56:32;;;;;;;6.55;1.65;;;;;;;;;;5012532;28;20046;-57
2023/03/28 09:59:00;;;;;;;4.10;1.52;;;;;;;;;;5009108;28;20061;-57
2023/03/28 10:01:31;;;;;;;5.15;1.95;;;;;;;;;;5008819;28;20075;-58
2023/03/28 10:03:58;;;;;;;2.77;1.67;;;;;;;;;;5009276;28;20053;-57
2023/03/28 10:06:29;;;;;;;3.42;1.67;;;;;;;;;;5010127;28;20038;-57
2023/03/28 10:09:14;;;;;;;3.92;1.65;;;;;;;;;;5008296;28;20052;-57
2023/03/28 10:11:44;;;;;;;2.03;1.70;;;;;;;;;;5007722;28;20053;-57
2023/03/28 10:14:29;;;;;;;3.25;1.85;;;;;;;;;;5005390;28;20054;-57
2023/03/28 10:16:56;;;;;;;3.20;1.92;;;;;;;;;;5006620;28;20054;-57
2023/03/28 10:19:24;;;;;;;3.20;1.40;;;;;;;;;;5008955;28;20048;-58
2023/03/28 10:21:50;;;;;;;2.53;1.63;;;;;;;;;;5013873;28;20570;-58
2023/03/28 10:24:18;;;;;;;5.10;1.92;;;;;;;;;;5013842;28;20042;-57
2023/03/28 10:26:44;;;;;;;2.47;1.65;;;;;;;;;;5043988;28;20096;-58
2023/03/28 10:29:12;;;;;;;5.78;1.73;;;;;;;;;;5011501;28;20061;-57
2023/03/28 10:31:39;;;;;;;3.15;1.80;;;;;;;;;;5015122;28;20038;-57
2023/03/28 10:34:07;;;;;;;3.42;1.98;;;;;;;;;;5015284;28;20195;-58
2023/03/28 10:36:39;;;;;;;4.43;1.75;;;;;;;;;;5016362;28;20046;-57
2023/03/28 10:39:25;;;;;;;2.83;1.67;;;;;;;;;;5016479;28;20126;-58
2023/03/28 10:41:52;;;;;;;4.30;1.77;;;;;;;;;;5016234;28;20138;-57
2023/03/28 10:44:19;;;;;;;6.43;3.38;;;;;;;;;;5015865;28;20048;-58
2023/03/28 10:46:45;;;;;;;3.95;1.70;;;;;;;;;;5015792;28;20217;-57
2023/03/28 10:49:15;;;;;;;5.75;1.90;;;;;;;;;;5013842;28;20038;-58
2023/03/28 10:51:42;;;;;;;2.25;1.23;;;;;;;;;;5045888;28;20088;-58
2023/03/28 10:54:08;;;;;;;3.85;1.83;;;;;;;;;;5015296;28;20073;-58
2023/03/28 10:56:37;;;;;;;2.95;1.45;;;;;;;;;;5015277;28;20129;-58
2023/03/28 10:59:20;;;;;;;3.03;1.50;;;;;;;;;;5014063;28;20574;-58
2023/03/28 11:01:52;;;;;;;2.40;1.63;;;;;;;;;;5016578;28;20092;-58
2023/03/28 11:04:18;;;;;;;;;;;;;;;;;;5014607;28;20050;-58
2023/03/28 11:06:53;;;;;;;6.00;1.80;;;;;;;;;;5016727;28;19922;-58
2023/03/28 11:09:39;;;;;;;3.08;2.45;;;;;;;;;;5014763;28;20042;-58
2023/03/28 11:12:23;;;;;;;4.05;1.65;;;;;;;;;;5017153;28;20527;-58
2023/03/28 11:14:59;;;;;;;2.50;1.30;;;;;;;;;;5017065;28;20124;-57
2023/03/28 11:17:25;;;;;;;3.08;2.00;;;;;;;;;;5016506;28;20131;-58
2023/03/28 11:20:09;;;;;;;2.92;1.58;;;;;;;;;;5014821;28;20049;-57
2023/03/28 11:22:38;;;;;;;2.55;1.48;;;;;;;;;;5013480;28;20629;-58
2023/03/28 11:25:37;;;;;;;2.38;1.48;;;;;;;;;;5014241;28;20042;-57
2023/03/28 11:28:03;;;;;;;6.50;1.67;;;;;;;;;;5011661;28;20065;-57
2023/03/28 11:30:31;;;;;;;3.10;1.40;;;;;;;;;;5009771;28;20053;-58
2023/03/28 11:33:08;;;;;;;2.63;1.70;;;;;;;;;;5013956;28;20042;-58
2023/03/28 11:35:37;;;;;;;7.97;2.35;;;;;;;;;;5011657;28;20098;-58
2023/03/28 11:38:13;;;;;;;13.25;4.10;;;;;;;;;;5012498;28;20089;-57
2023/03/28 11:40:42;;;;;;;10.52;4.43;;;;;;;;;;5011876;28;20050;-58
2023/03/28 11:43:10;;;;;;;3.35;2.47;;;;;;;;;;5012803;28;20042;-58
2023/03/28 11:45:36;;;;;;;4.07;1.75;;;;;;;;;;5009251;28;20046;-58
2023/03/28 11:48:04;;;;;;;4.35;1.50;;;;;;;;;;5012341;28;20587;-58
2023/03/28 11:50:50;;;;;;;3.08;1.38;;;;;;;;;;5012697;28;20046;-57
2023/03/28 11:53:31;;;;;;;2.45;1.55;;;;;;;;;;5011083;28;20097;-58
2023/03/28 11:56:01;;;;;;;3.28;1.65;;;;;;;;;;5010882;28;20101;-57
2023/03/28 11:58:29;;;;;;;2.20;1.20;;;;;;;;;;5008959;28;20053;-57
2023/03/28 12:01:16;;;;;;;2.33;1.17;;;;;;;;;;5007752;28;20073;-58
2023/03/28 12:03:58;;;;;;;4.25;1.27;;;;;;;;;;5010326;28;20528;-58
2023/03/28 12:06:33;;;;;;;2.00;1.13;;;;;;;;;;5013541;28;20069;-58
2023/03/28 12:09:02;;;;;;;1.80;1.35;;;;;;;;;;5013672;28;20049;-58
2023/03/28 12:11:34;;;;;;;2.45;1.50;;;;;;;;;;5016220;28;20076;-58
2023/03/28 12:14:06;;;;;;;3.25;1.83;;;;;;;;;;5014471;28;20524;-58
2023/03/28 12:16:37;;;;;;;5.20;1.38;;;;;;;;;;5012776;28;20058;-58
2023/03/28 12:19:05;;;;;;;3.80;1.57;;;;;;;;;;5011144;28;20199;-58
2023/03/28 12:21:37;;;;;;;4.18;1.38;;;;;;;;;;5014451;28;20228;-58
2023/03/28 12:24:10;;;;;;;3.78;1.30;;;;;;;;;;5015285;28;20071;-57
2023/03/28 12:26:42;;;;;;;4.78;1.60;;;;;;;;;;5013894;28;20053;-57
2023/03/28 12:29:14;;;;;;;4.10;1.52;;;;;;;;;;5013360;28;20042;-58
2023/03/28 12:31:40;;;;;;;3.40;1.40;;;;;;;;;;5016434;28;20124;-58
2023/03/28 12:34:26;;;;;;;2.88;1.40;;;;;;;;;;5016065;28;20050;-58
2023/03/28 12:36:58;;;;;;;3.10;1.48;;;;;;;;;;5015575;28;20038;-58
2023/03/28 12:39:44;;;;;;;5.00;1.65;;;;;;;;;;5013784;28;20557;-58
2023/03/28 12:42:12;;;;;;;3.83;1.40;;;;;;;;;;5014975;28;20054;-61
2023/03/28 12:44:44;;;;;;;2.72;1.50;;;;;;;;;;5013664;28;20144;-61
2023/03/28 12:47:10;;;;;;;;;;;;;;;;;;5015241;28;20046;-61
2023/03/28 12:49:48;;;;;;;2.83;1.50;;;;;;;;;;5013404;28;19965;-61
2023/03/28 12:52:25;;;;;;;2.80;1.10;;;;;;;;;;5014786;28;20524;-61
2023/03/28 12:55:01;;;;;;;4.47;2.17;;;;;;;;;;5015374;28;20048;-61
2023/03/28 12:57:39;;;;;;;2.75;1.65;;;;;;;;;;5015600;28;20532;-61
2023/03/28 13:00:12;;;;;;;3.75;2.30;;;;;;;;;;5014792;28;20164;-60
2023/03/28 13:02:38;;;;;;;5.82;1.92;;;;;;;;;;5014204;28;20040;-61
2023/03/28 13:05:27;;;;;;;5.43;2.50;;;;;;;;;;5012817;28;20106;-61
2023/03/28 13:07:59;;;;;;;2.78;1.63;;;;;;;;;;5015175;28;20073;-61
2023/03/28 13:10:40;;;;;;;5.30;2.90;;;;;;;;;;5006897;28;20096;-60
2023/03/28 13:13:16;;;;;;;3.13;1.50;;;;;;;;;;5015959;28;20044;-60
2023/03/28 13:16:04;;;;;;;2.22;1.70;;;;;;;;;;5012125;28;20053;-60
2023/03/28 13:18:32;;;;;;;2.53;1.70;;;;;;;;;;5009559;28;20133;-60
2023/03/28 13:20:59;;;;;;;3.13;2.05;;;;;;;;;;5009753;28;20042;-60
2023/03/28 13:23:28;;;;;;;2.40;1.60;;;;;;;;;;5011701;28;20188;-60
2023/03/28 13:25:59;;;;;;;7.30;1.95;;;;;;;;;;5010454;28;20549;-60
2023/03/28 13:28:32;;;;;;;4.00;1.60;;;;;;;;;;5013400;28;20065;-60
2023/03/28 13:31:05;;;;;;;3.92;1.35;;;;;;;;;;5012345;28;20060;-60
2023/03/28 13:33:46;;;;;;;4.70;1.40;;;;;;;;;;5007456;28;20049;-60
2023/03/28 13:36:13;;;;;;;2.35;1.30;;;;;;;;;;5014121;28;20988;-60
2023/03/28 13:38:57;;;;;;;3.40;1.30;;;;;;;;;;5012589;28;20073;-60
2023/03/28 13:41:42;;;;;;;3.85;1.55;;;;;;;;;;5027963;28;20072;-60
2023/03/28 13:44:13;;;;;;;5.60;1.80;;;;;;;;;;5012650;28;20048;-59
2023/03/28 13:46:39;;;;;;;2.50;1.50;;;;;;;;;;5009999;28;20042;-60
2023/03/28 13:49:17;;;;;;;2.90;1.98;;;;;;;;;;5012873;28;20046;-60
2023/03/28 13:51:49;;;;;;;3.35;1.80;;;;;;;;;;5008243;28;20132;-59
2023/03/28 13:54:15;;;;;;;4.63;1.52;;;;;;;;;;5009058;28;20038;-59
2023/03/28 13:56:45;;;;;;;2.75;1.23;;;;;;;;;;5009186;28;20057;-60
2023/03/28 13:59:13;;;;;;;1.95;1.25;;;;;;;;;;5011025;28;20048;-60
2023/03/28 14:01:49;;;;;;;4.25;2.70;;;;;;;;;;5024356;28;20038;-60
2023/03/28 14:04:20;;;;;;;5.65;2.95;;;;;;;;;;5008093;28;20042;-60
2023/03/28 14:06:46;;;;;;;3.85;1.98;;;;;;;;;;5007607;28;20131;-60
2023/03/28 14:09:19;;;;;;;5.93;2.08;;;;;;;;;;5010915;28;20130;-60
2023/03/28 14:11:46;;;;;;;3.08;2.00;;;;;;;;;;5040222;28;20049;-60
2023/03/28 14:14:15;;;;;;;3.40;2.05;;;;;;;;;;5007168;28;20327;-60
2023/03/28 14:16:42;;;;;;;5.22;1.48;;;;;;;;;;5009225;28;20061;-60
2023/03/28 14:19:09;;;;;;;3.63;1.70;;;;;;;;;;5008806;28;20070;-60
2023/03/28 14:21:35;;;;;;;3.05;1.75;;;;;;;;;;5009922;28;20075;-60
2023/03/28 14:24:04;;;;;;;3.40;1.70;;;;;;;;;;5009531;28;21649;-60
2023/03/28 14:26:33;;;;;;;2.22;1.23;;;;;;;;;;5008956;28;20053;-60
2023/03/28 14:29:06;;;;;;;3.33;1.40;;;;;;;;;;5010747;28;20226;-60
2023/03/28 14:31:34;;;;;;;7.18;1.45;;;;;;;;;;5008756;28;20104;-60
2023/03/28 14:34:12;;;;;;;2.08;1.40;;;;;;;;;;5008998;28;20103;-61
2023/03/28 14:36:53;;;;;;;2.88;1.00;;;;;;;;;;5010920;28;20061;-60
2023/03/28 14:39:20;;;;;;;2.30;1.27;;;;;;;;;;5011452;28;20551;-60
2023/03/28 14:41:46;;;;;;;2.53;1.40;;;;;;;;;;5010355;28;20050;-60
2023/03/28 14:44:12;;;;;;;2.20;1.27;;;;;;;;;;5012062;28;20652;-60
2023/03/28 14:46:39;;;;;;;4.90;1.50;;;;;;;;;;5011255;28;20040;-61
2023/03/28 14:49:08;;;;;;;3.80;1.30;;;;;;;;;;5012299;28;20105;-60
2023/03/28 14:51:42;;;;;;;4.72;1.25;;;;;;;;;;5012451;28;20053;-60
2023/03/28 14:54:13;;;;;;;1.83;1.05;;;;;;;;;;5012886;28;20049;-61
2023/03/28 14:56:39;;;;;;;3.90;1.33;;;;;;;;;;5013656;28;20050;-60
2023/03/28 14:59:06;;;;;;;2.70;1.17;;;;;;;;;;5012480;28;20049;-60